createdAt,value
2018-05-14T00:00:07.328Z,0
2018-05-14T00:01:28.856Z,0
2018-05-14T00:02:50.924Z,0
2018-05-14T00:04:12.889Z,0
2018-05-14T00:05:34.969Z,0
2018-05-14T00:06:57.042Z,0
2018-05-14T00:08:19.109Z,0
2018-05-14T00:09:40.930Z,0
2018-05-14T00:11:02.724Z,0
2018-05-14T00:12:24.514Z,0
2018-05-14T00:13:46.336Z,0
2018-05-14T00:15:07.875Z,0
2018-05-14T00:16:29.948Z,0
2018-05-14T00:17:52.016Z,0
2018-05-14T00:19:13.291Z,0
2018-05-14T00:20:35.092Z,0
2018-05-14T00:21:56.635Z,0
2018-05-14T00:23:18.439Z,0
2018-05-14T00:24:40.500Z,0
2018-05-14T00:26:02.286Z,0
2018-05-14T00:27:24.348Z,0
2018-05-14T00:28:46.415Z,0
2018-05-14T00:30:08.227Z,0
2018-05-14T00:31:29.765Z,0
2018-05-14T00:32:51.576Z,0
2018-05-14T00:34:13.126Z,0
2018-05-14T00:35:35.204Z,0
2018-05-14T00:36:57.276Z,0
2018-05-14T00:38:19.350Z,0
2018-05-14T00:39:41.173Z,0
2018-05-14T00:41:02.711Z,0
2018-05-14T00:42:24.784Z,0
2018-05-14T00:43:46.842Z,0
2018-05-14T00:45:08.635Z,0
2018-05-14T00:46:30.434Z,0
2018-05-14T00:47:52.595Z,0
2018-05-14T00:49:14.383Z,0
2018-05-14T00:50:36.474Z,0
2018-05-14T00:51:58.530Z,0
2018-05-14T00:53:20.592Z,0
2018-05-14T00:54:42.648Z,0
2018-05-14T00:56:03.917Z,0
2018-05-14T00:57:25.966Z,0
2018-05-14T00:58:47.509Z,0
2018-05-14T01:00:09.631Z,0
2018-05-14T01:01:31.713Z,0
2018-05-14T01:02:53.522Z,0
2018-05-14T01:04:15.609Z,0
2018-05-14T01:05:37.395Z,0
2018-05-14T01:06:59.193Z,0
2018-05-14T01:08:21.294Z,0
2018-05-14T01:09:43.357Z,0
2018-05-14T01:11:05.149Z,0
2018-05-14T01:12:26.954Z,0
2018-05-14T01:13:49.010Z,0
2018-05-14T01:15:10.809Z,0
2018-05-14T01:16:32.601Z,0
2018-05-14T01:17:54.132Z,0
2018-05-14T01:19:15.919Z,0
2018-05-14T01:20:37.716Z,0
2018-05-14T01:21:59.785Z,0
2018-05-14T01:23:21.574Z,0
2018-05-14T01:24:43.378Z,0
2018-05-14T01:26:04.643Z,0
2018-05-14T01:27:26.441Z,0
2018-05-14T01:28:48.243Z,0
2018-05-14T01:30:10.042Z,0
2018-05-14T01:31:32.109Z,0
2018-05-14T01:32:53.933Z,0
2018-05-14T01:34:15.739Z,0
2018-05-14T01:35:37.791Z,0
2018-05-14T01:36:59.837Z,0
2018-05-14T01:38:21.634Z,0
2018-05-14T01:39:43.163Z,0
2018-05-14T01:41:04.953Z,0
2018-05-14T01:42:26.754Z,0
2018-05-14T01:43:48.030Z,0
2018-05-14T01:45:09.829Z,0
2018-05-14T01:46:31.912Z,0
2018-05-14T01:47:53.185Z,0
2018-05-14T01:49:15.294Z,0
2018-05-14T01:50:36.823Z,0
2018-05-14T01:51:58.889Z,0
2018-05-14T01:53:20.422Z,0
2018-05-14T01:54:42.480Z,0
2018-05-14T01:56:04.272Z,0
2018-05-14T01:57:26.082Z,0
2018-05-14T01:58:47.360Z,0
2018-05-14T02:00:09.422Z,0
2018-05-14T02:01:31.221Z,0
2018-05-14T02:02:53.280Z,0
2018-05-14T02:04:15.078Z,0
2018-05-14T02:05:36.883Z,0
2018-05-14T02:06:58.521Z,0
2018-05-14T02:08:20.352Z,0
2018-05-14T02:09:42.415Z,0
2018-05-14T02:11:04.471Z,0
2018-05-14T02:12:26.267Z,0
2018-05-14T02:13:48.072Z,0
2018-05-14T02:15:09.875Z,0
2018-05-14T02:16:31.689Z,0
2018-05-14T02:17:53.473Z,0
2018-05-14T02:19:15.286Z,0
2018-05-14T02:20:37.087Z,0
2018-05-14T02:21:59.138Z,0
2018-05-14T02:23:21.180Z,0
2018-05-14T02:24:43.231Z,0
2018-05-14T02:26:05.299Z,0
2018-05-14T02:27:27.118Z,0
2018-05-14T02:28:49.180Z,0
2018-05-14T02:30:11.239Z,0
2018-05-14T02:31:33.041Z,0
2018-05-14T02:32:55.083Z,0
2018-05-14T02:34:17.151Z,0
2018-05-14T02:35:39.215Z,0
2018-05-14T02:37:01.023Z,0
2018-05-14T02:38:22.835Z,0
2018-05-14T02:39:44.368Z,0
2018-05-14T02:41:06.183Z,0
2018-05-14T02:42:27.987Z,0
2018-05-14T02:43:49.788Z,0
2018-05-14T02:45:11.857Z,0
2018-05-14T02:46:33.667Z,0
2018-05-14T02:47:55.456Z,0
2018-05-14T02:49:17.521Z,0
2018-05-14T02:50:39.325Z,0
2018-05-14T02:52:01.120Z,0
2018-05-14T02:53:22.456Z,0
2018-05-14T02:54:44.260Z,0
2018-05-14T02:56:06.329Z,0
2018-05-14T02:57:28.133Z,0
2018-05-14T02:58:49.944Z,0
2018-05-14T03:00:11.750Z,0
2018-05-14T03:01:33.812Z,0
2018-05-14T03:02:55.888Z,0
2018-05-14T03:04:17.449Z,0
2018-05-14T03:05:39.514Z,0
2018-05-14T03:07:01.684Z,0
2018-05-14T03:08:23.771Z,0
2018-05-14T03:09:45.589Z,0
2018-05-14T03:11:07.132Z,0
2018-05-14T03:12:29.201Z,0
2018-05-14T03:13:50.987Z,0
2018-05-14T03:15:13.060Z,0
2018-05-14T03:16:35.128Z,5
2018-05-14T03:17:56.924Z,5
2018-05-14T03:19:18.989Z,5
2018-05-14T03:20:40.525Z,5
2018-05-14T03:22:02.333Z,5
2018-05-14T03:23:24.143Z,5
2018-05-14T03:24:46.193Z,5
2018-05-14T03:26:08.001Z,10
2018-05-14T03:27:29.802Z,10
2018-05-14T03:28:51.588Z,10
2018-05-14T03:30:13.653Z,10
2018-05-14T03:31:35.712Z,15
2018-05-14T03:32:57.514Z,15
2018-05-14T03:34:19.304Z,15
2018-05-14T03:35:40.824Z,15
2018-05-14T03:37:02.636Z,20
2018-05-14T03:38:23.922Z,20
2018-05-14T03:39:45.990Z,20
2018-05-14T03:41:08.039Z,25
2018-05-14T03:42:30.086Z,25
2018-05-14T03:43:52.144Z,25
2018-05-14T03:45:14.194Z,30
2018-05-14T03:46:36.246Z,30
2018-05-14T03:47:58.037Z,35
2018-05-14T03:49:19.827Z,35
2018-05-14T03:50:41.352Z,35
2018-05-14T03:52:03.153Z,40
2018-05-14T03:53:24.949Z,40
2018-05-14T03:54:47.013Z,45
2018-05-14T03:56:08.827Z,45
2018-05-14T03:57:30.641Z,45
2018-05-14T03:58:52.449Z,50
2018-05-14T04:00:14.240Z,50
2018-05-14T04:01:36.038Z,55
2018-05-14T04:02:57.835Z,55
2018-05-14T04:04:19.641Z,60
2018-05-14T04:05:41.446Z,60
2018-05-14T04:07:03.248Z,60
2018-05-14T04:08:25.108Z,65
2018-05-14T04:09:47.166Z,65
2018-05-14T04:11:08.963Z,70
2018-05-14T04:12:31.021Z,70
2018-05-14T04:13:52.570Z,75
2018-05-14T04:15:14.365Z,75
2018-05-14T04:16:36.241Z,80
2018-05-14T04:17:58.052Z,80
2018-05-14T04:19:19.839Z,80
2018-05-14T04:20:41.904Z,85
2018-05-14T04:22:03.703Z,85
2018-05-14T04:23:25.261Z,90
2018-05-14T04:24:47.193Z,90
2018-05-14T04:26:08.999Z,95
2018-05-14T04:27:30.798Z,95
2018-05-14T04:28:52.627Z,95
2018-05-14T04:30:14.819Z,100
2018-05-14T04:31:36.922Z,100
2018-05-14T04:32:58.999Z,100
2018-05-14T04:34:20.540Z,100
2018-05-14T04:35:42.613Z,105
2018-05-14T04:37:03.883Z,105
2018-05-14T04:38:25.964Z,105
2018-05-14T04:39:48.027Z,110
2018-05-14T04:41:10.107Z,110
2018-05-14T04:42:31.905Z,115
2018-05-14T04:43:53.982Z,115
2018-05-14T04:45:16.057Z,120
2018-05-14T04:46:37.906Z,125
2018-05-14T04:47:59.708Z,120
2018-05-14T04:49:21.239Z,125
2018-05-14T04:50:43.053Z,130
2018-05-14T04:52:04.604Z,130
2018-05-14T04:53:26.669Z,135
2018-05-14T04:54:48.219Z,140
2018-05-14T04:56:10.274Z,150
2018-05-14T04:57:32.372Z,160
2018-05-14T04:58:54.462Z,165
2018-05-14T05:00:16.257Z,175
2018-05-14T05:01:38.064Z,190
2018-05-14T05:03:00.131Z,240
2018-05-14T05:04:21.950Z,480
2018-05-14T05:05:43.742Z,610
2018-05-14T05:07:05.018Z,635
2018-05-14T05:08:27.095Z,640
2018-05-14T05:09:49.176Z,650
2018-05-14T05:11:11.345Z,680
2018-05-14T05:12:33.408Z,685
2018-05-14T05:13:55.211Z,690
2018-05-14T05:15:17.021Z,700
2018-05-14T05:16:38.824Z,735
2018-05-14T05:18:00.902Z,755
2018-05-14T05:19:22.996Z,770
2018-05-14T05:20:45.330Z,740
2018-05-14T05:22:07.139Z,800
2018-05-14T05:23:28.948Z,810
2018-05-14T05:24:50.762Z,825
2018-05-14T05:26:12.326Z,810
2018-05-14T05:27:34.407Z,805
2018-05-14T05:28:56.487Z,815
2018-05-14T05:30:18.567Z,835
2018-05-14T05:31:40.665Z,775
2018-05-14T05:33:02.494Z,780
2018-05-14T05:34:24.360Z,765
2018-05-14T05:35:46.132Z,745
2018-05-14T05:37:08.202Z,720
2018-05-14T05:38:30.021Z,685
2018-05-14T05:39:52.087Z,680
2018-05-14T05:41:13.644Z,655
2018-05-14T05:42:35.460Z,655
2018-05-14T05:43:57.284Z,625
2018-05-14T05:45:18.642Z,615
2018-05-14T05:46:40.733Z,590
2018-05-14T05:48:02.879Z,585
2018-05-14T05:49:24.428Z,580
2018-05-14T05:50:46.549Z,560
2018-05-14T05:52:08.348Z,540
2018-05-14T05:53:30.438Z,535
2018-05-14T05:54:52.527Z,530
2018-05-14T05:56:14.081Z,520
2018-05-14T05:57:35.891Z,525
2018-05-14T05:58:57.982Z,540
2018-05-14T06:00:19.810Z,575
2018-05-14T06:01:41.752Z,590
2018-05-14T06:03:03.817Z,585
2018-05-14T06:04:25.628Z,585
2018-05-14T06:05:47.191Z,575
2018-05-14T06:07:09.008Z,540
2018-05-14T06:08:30.823Z,510
2018-05-14T06:09:53.011Z,500
2018-05-14T06:11:15.083Z,500
2018-05-14T06:12:36.897Z,505
2018-05-14T06:13:58.462Z,500
2018-05-14T06:15:20.015Z,495
2018-05-14T06:16:41.588Z,495
2018-05-14T06:18:03.396Z,500
2018-05-14T06:19:25.481Z,500
2018-05-14T06:20:46.789Z,495
2018-05-14T06:22:08.870Z,495
2018-05-14T06:23:30.700Z,500
2018-05-14T06:24:52.508Z,505
2018-05-14T06:26:14.330Z,505
2018-05-14T06:27:36.151Z,505
2018-05-14T06:28:57.697Z,500
2018-05-14T06:30:19.537Z,505
2018-05-14T06:31:41.610Z,500
2018-05-14T06:33:03.166Z,505
2018-05-14T06:34:25.261Z,500
2018-05-14T06:35:47.607Z,505
2018-05-14T06:37:09.524Z,510
2018-05-14T06:38:31.085Z,505
2018-05-14T06:39:52.895Z,505
2018-05-14T06:41:14.990Z,505
2018-05-14T06:42:37.074Z,505
2018-05-14T06:43:59.151Z,505
2018-05-14T06:45:21.268Z,510
2018-05-14T06:46:43.352Z,505
2018-05-14T06:48:05.431Z,510
2018-05-14T06:49:27.513Z,510
2018-05-14T06:50:49.070Z,505
2018-05-14T06:52:10.629Z,540
2018-05-14T06:53:32.701Z,560
2018-05-14T06:54:54.527Z,525
2018-05-14T06:56:16.623Z,515
2018-05-14T06:57:38.432Z,510
2018-05-14T06:59:00.528Z,515
2018-05-14T07:00:22.635Z,520
2018-05-14T07:01:44.735Z,520
2018-05-14T07:03:06.328Z,510
2018-05-14T07:04:27.856Z,515
2018-05-14T07:05:49.668Z,515
2018-05-14T07:07:11.471Z,515
2018-05-14T07:08:33.041Z,515
2018-05-14T07:09:55.191Z,515
2018-05-14T07:11:17.011Z,515
2018-05-14T07:12:38.569Z,505
2018-05-14T07:14:00.656Z,515
2018-05-14T07:15:22.761Z,515
2018-05-14T07:16:44.850Z,515
2018-05-14T07:18:06.944Z,510
2018-05-14T07:19:28.888Z,510
2018-05-14T07:20:50.972Z,510
2018-05-14T07:22:13.135Z,510
2018-05-14T07:23:35.207Z,510
2018-05-14T07:24:57.373Z,515
2018-05-14T07:26:19.464Z,515
2018-05-14T07:27:41.540Z,505
2018-05-14T07:29:03.622Z,495
2018-05-14T07:30:25.683Z,495
2018-05-14T07:31:47.753Z,505
2018-05-14T07:33:09.824Z,495
2018-05-14T07:34:31.897Z,500
2018-05-14T07:35:53.459Z,500
2018-05-14T07:37:15.288Z,480
2018-05-14T07:38:37.122Z,475
2018-05-14T07:39:59.205Z,475
2018-05-14T07:41:21.015Z,470
2018-05-14T07:42:42.832Z,455
2018-05-14T07:44:04.664Z,450
2018-05-14T07:45:26.497Z,450
2018-05-14T07:46:48.321Z,440
2018-05-14T07:48:10.394Z,430
2018-05-14T07:49:32.468Z,430
2018-05-14T07:50:54.021Z,430
2018-05-14T07:52:15.839Z,425
2018-05-14T07:53:37.669Z,420
2018-05-14T07:54:59.233Z,430
2018-05-14T07:56:20.791Z,420
2018-05-14T07:57:42.641Z,425
2018-05-14T07:59:04.728Z,415
2018-05-14T08:00:26.541Z,405
2018-05-14T08:01:48.372Z,410
2018-05-14T08:03:09.924Z,395
2018-05-14T08:04:31.739Z,385
2018-05-14T08:05:54.121Z,345
2018-05-14T08:07:15.994Z,255
2018-05-14T08:08:37.804Z,225
2018-05-14T08:09:59.877Z,220
2018-05-14T08:11:21.434Z,215
2018-05-14T08:12:43.258Z,215
2018-05-14T08:14:05.614Z,215
2018-05-14T08:15:27.430Z,210
2018-05-14T08:16:49.532Z,205
2018-05-14T08:18:11.387Z,205
2018-05-14T08:19:33.358Z,210
2018-05-14T08:20:55.184Z,205
2018-05-14T08:22:17.265Z,205
2018-05-14T08:23:39.166Z,205
2018-05-14T08:25:00.722Z,205
2018-05-14T08:26:22.806Z,205
2018-05-14T08:27:44.875Z,205
2018-05-14T08:29:06.677Z,205
2018-05-14T08:30:28.755Z,205
2018-05-14T08:31:50.622Z,205
2018-05-14T08:33:12.854Z,205
2018-05-14T08:34:34.677Z,205
2018-05-14T08:35:56.499Z,205
2018-05-14T08:37:18.459Z,205
2018-05-14T08:38:40.263Z,205
2018-05-14T08:40:02.106Z,205
2018-05-14T08:41:24.271Z,205
2018-05-14T08:42:46.191Z,205
2018-05-14T08:44:08.007Z,205
2018-05-14T08:45:29.847Z,205
2018-05-14T08:46:52.056Z,205
2018-05-14T08:48:14.115Z,205
2018-05-14T08:49:36.211Z,205
2018-05-14T08:50:58.021Z,205
2018-05-14T08:52:20.096Z,205
2018-05-14T08:53:42.154Z,205
2018-05-14T08:55:04.333Z,205
2018-05-14T08:56:25.877Z,200
2018-05-14T08:57:48.198Z,205
2018-05-14T08:59:09.771Z,205
2018-05-14T09:00:31.337Z,200
2018-05-14T09:01:53.151Z,200
2018-05-14T09:03:14.428Z,200
2018-05-14T09:04:36.273Z,200
2018-05-14T09:05:58.089Z,200
2018-05-14T09:07:20.165Z,200
2018-05-14T09:08:41.982Z,200
2018-05-14T09:10:04.057Z,200
2018-05-14T09:11:25.362Z,195
2018-05-14T09:12:47.174Z,195
2018-05-14T09:14:08.731Z,195
2018-05-14T09:15:30.555Z,195
2018-05-14T09:16:52.656Z,195
2018-05-14T09:18:14.465Z,200
2018-05-14T09:19:36.859Z,200
2018-05-14T09:20:58.684Z,200
2018-05-14T09:22:20.751Z,195
2018-05-14T09:23:42.835Z,195
2018-05-14T09:25:04.678Z,195
2018-05-14T09:26:26.842Z,195
2018-05-14T09:27:48.649Z,195
2018-05-14T09:29:10.190Z,195
2018-05-14T09:30:31.746Z,195
2018-05-14T09:31:53.584Z,195
2018-05-14T09:33:15.660Z,195
2018-05-14T09:34:37.724Z,195
2018-05-14T09:35:59.547Z,195
2018-05-14T09:37:21.615Z,200
2018-05-14T09:38:43.802Z,195
2018-05-14T09:40:05.867Z,200
2018-05-14T09:41:27.671Z,190
2018-05-14T09:42:49.480Z,195
2018-05-14T09:44:11.561Z,195
2018-05-14T09:45:33.125Z,190
2018-05-14T09:46:54.956Z,190
2018-05-14T09:48:16.523Z,190
2018-05-14T09:49:38.326Z,190
2018-05-14T09:51:00.400Z,190
2018-05-14T09:52:22.226Z,190
2018-05-14T09:53:44.299Z,190
2018-05-14T09:55:05.848Z,190
2018-05-14T09:56:27.922Z,190
2018-05-14T09:57:50.012Z,190
2018-05-14T09:59:12.180Z,190
2018-05-14T10:00:33.989Z,190
2018-05-14T10:01:55.548Z,190
2018-05-14T10:03:17.623Z,190
2018-05-14T10:04:39.429Z,190
2018-05-14T10:06:01.109Z,190
2018-05-14T10:07:22.923Z,190
2018-05-14T10:08:45.004Z,190
2018-05-14T10:10:07.083Z,190
2018-05-14T10:11:29.166Z,190
2018-05-14T10:12:51.258Z,190
2018-05-14T10:14:13.339Z,190
2018-05-14T10:15:35.414Z,190
2018-05-14T10:16:57.252Z,190
2018-05-14T10:18:19.070Z,190
2018-05-14T10:19:41.136Z,190
2018-05-14T10:21:02.954Z,190
2018-05-14T10:22:25.020Z,190
2018-05-14T10:23:47.100Z,190
2018-05-14T10:25:09.176Z,190
2018-05-14T10:26:31.311Z,190
2018-05-14T10:27:52.820Z,190
2018-05-14T10:29:14.978Z,190
2018-05-14T10:30:37.055Z,195
2018-05-14T10:31:59.004Z,195
2018-05-14T10:33:21.094Z,195
2018-05-14T10:34:43.185Z,195
2018-05-14T10:36:05.261Z,195
2018-05-14T10:37:27.354Z,195
2018-05-14T10:38:49.211Z,195
2018-05-14T10:40:11.296Z,195
2018-05-14T10:41:33.368Z,200
2018-05-14T10:42:54.917Z,200
2018-05-14T10:44:16.466Z,200
2018-05-14T10:45:38.083Z,195
2018-05-14T10:47:00.500Z,200
2018-05-14T10:48:22.311Z,195
2018-05-14T10:49:44.381Z,200
2018-05-14T10:51:06.475Z,195
2018-05-14T10:52:28.569Z,195
2018-05-14T10:53:50.367Z,195
2018-05-14T10:55:12.451Z,195
2018-05-14T10:56:34.268Z,195
2018-05-14T10:57:56.416Z,195
2018-05-14T10:59:18.245Z,195
2018-05-14T11:00:40.063Z,190
2018-05-14T11:02:01.869Z,190
2018-05-14T11:03:23.939Z,190
2018-05-14T11:04:45.752Z,160
2018-05-14T11:06:07.833Z,160
2018-05-14T11:07:29.929Z,190
2018-05-14T11:08:52.010Z,185
2018-05-14T11:10:14.085Z,190
2018-05-14T11:11:36.136Z,190
2018-05-14T11:12:58.212Z,195
2018-05-14T11:14:20.034Z,205
2018-05-14T11:15:42.123Z,200
2018-05-14T11:17:03.939Z,195
2018-05-14T11:18:26.014Z,190
2018-05-14T11:19:47.840Z,190
2018-05-14T11:21:09.650Z,185
2018-05-14T11:22:31.479Z,185
2018-05-14T11:23:53.301Z,185
2018-05-14T11:25:14.852Z,185
2018-05-14T11:26:36.960Z,185
2018-05-14T11:27:59.379Z,180
2018-05-14T11:29:21.203Z,180
2018-05-14T11:30:43.281Z,185
2018-05-14T11:32:05.113Z,185
2018-05-14T11:33:26.951Z,185
2018-05-14T11:34:49.019Z,185
2018-05-14T11:36:11.106Z,185
2018-05-14T11:37:33.197Z,185
2018-05-14T11:38:55.275Z,185
2018-05-14T11:40:17.371Z,185
2018-05-14T11:41:39.214Z,185
2018-05-14T11:43:01.055Z,185
2018-05-14T11:44:23.126Z,185
2018-05-14T11:45:44.976Z,180
2018-05-14T11:47:06.802Z,180
2018-05-14T11:48:28.616Z,180
2018-05-14T11:49:50.692Z,180
2018-05-14T11:51:12.957Z,180
2018-05-14T11:52:35.045Z,185
2018-05-14T11:53:57.162Z,180
2018-05-14T11:55:19.361Z,180
2018-05-14T11:56:40.921Z,185
2018-05-14T11:58:03.035Z,185
2018-05-14T11:59:25.124Z,185
2018-05-14T12:00:46.687Z,185
2018-05-14T12:02:08.771Z,190
2018-05-14T12:03:30.616Z,190
2018-05-14T12:04:52.706Z,190
2018-05-14T12:06:14.778Z,190
2018-05-14T12:07:36.603Z,210
2018-05-14T12:08:58.411Z,215
2018-05-14T12:10:20.237Z,225
2018-05-14T12:11:42.317Z,235
2018-05-14T12:13:04.150Z,225
2018-05-14T12:14:26.229Z,250
2018-05-14T12:15:47.801Z,240
2018-05-14T12:17:09.622Z,225
2018-05-14T12:18:31.585Z,215
2018-05-14T12:19:53.657Z,225
2018-05-14T12:21:15.472Z,230
2018-05-14T12:22:37.570Z,235
2018-05-14T12:23:59.657Z,235
2018-05-14T12:25:21.197Z,240
2018-05-14T12:26:43.020Z,225
2018-05-14T12:28:04.878Z,210
2018-05-14T12:29:26.967Z,180
2018-05-14T12:30:48.825Z,195
2018-05-14T12:32:11.038Z,200
2018-05-14T12:33:33.219Z,225
2018-05-14T12:34:55.064Z,235
2018-05-14T12:36:16.895Z,240
2018-05-14T12:37:39.185Z,230
2018-05-14T12:39:01.370Z,230
2018-05-14T12:40:23.455Z,220
2018-05-14T12:41:45.298Z,230
2018-05-14T12:43:07.148Z,255
2018-05-14T12:44:29.255Z,250
2018-05-14T12:45:51.437Z,240
2018-05-14T12:47:13.516Z,235
2018-05-14T12:48:35.580Z,235
2018-05-14T12:49:57.665Z,240
2018-05-14T12:51:19.795Z,245
2018-05-14T12:52:41.886Z,255
2018-05-14T12:54:03.696Z,265
2018-05-14T12:55:25.544Z,270
2018-05-14T12:56:47.361Z,285
2018-05-14T12:58:09.434Z,295
2018-05-14T12:59:31.554Z,300
2018-05-14T13:00:53.385Z,295
2018-05-14T13:02:15.507Z,295
2018-05-14T13:03:37.327Z,305
2018-05-14T13:04:59.173Z,335
2018-05-14T13:06:21.036Z,330
2018-05-14T13:07:43.120Z,300
2018-05-14T13:09:04.951Z,280
2018-05-14T13:10:26.785Z,260
2018-05-14T13:11:48.876Z,260
2018-05-14T13:13:10.858Z,260
2018-05-14T13:14:33.053Z,240
2018-05-14T13:15:55.145Z,235
2018-05-14T13:17:16.985Z,235
2018-05-14T13:18:39.049Z,245
2018-05-14T13:20:00.359Z,270
2018-05-14T13:21:22.176Z,295
2018-05-14T13:22:44.277Z,330
2018-05-14T13:24:06.395Z,330
2018-05-14T13:25:28.258Z,345
2018-05-14T13:26:50.105Z,360
2018-05-14T13:28:12.210Z,360
2018-05-14T13:29:34.305Z,355
2018-05-14T13:30:56.119Z,345
2018-05-14T13:32:18.431Z,330
2018-05-14T13:33:40.558Z,315
2018-05-14T13:35:02.650Z,305
2018-05-14T13:36:24.769Z,300
2018-05-14T13:37:47.512Z,300
2018-05-14T13:39:09.602Z,300
2018-05-14T13:40:31.177Z,290
2018-05-14T13:41:52.741Z,280
2018-05-14T13:43:15.063Z,270
2018-05-14T13:44:37.715Z,260
2018-05-14T13:45:59.557Z,260
2018-05-14T13:47:21.382Z,265
2018-05-14T13:48:43.233Z,270
2018-05-14T13:50:05.085Z,285
2018-05-14T13:51:27.079Z,310
2018-05-14T13:52:48.953Z,325
2018-05-14T13:54:11.057Z,345
2018-05-14T13:55:33.181Z,340
2018-05-14T13:56:55.278Z,335
2018-05-14T13:58:17.382Z,315
2018-05-14T13:59:39.481Z,300
2018-05-14T14:01:01.308Z,310
2018-05-14T14:02:23.411Z,305
2018-05-14T14:03:45.251Z,305
2018-05-14T14:05:07.577Z,295
2018-05-14T14:06:29.656Z,290
2018-05-14T14:07:51.479Z,290
2018-05-14T14:09:13.604Z,295
2018-05-14T14:10:35.440Z,305
2018-05-14T14:11:57.277Z,305
2018-05-14T14:13:19.389Z,300
2018-05-14T14:14:41.495Z,305
2018-05-14T14:16:03.635Z,305
2018-05-14T14:17:25.937Z,315
2018-05-14T14:18:48.021Z,300
2018-05-14T14:20:10.141Z,305
2018-05-14T14:21:31.982Z,295
2018-05-14T14:22:53.807Z,285
2018-05-14T14:24:16.104Z,270
2018-05-14T14:25:38.304Z,270
2018-05-14T14:27:00.396Z,270
2018-05-14T14:28:22.506Z,265
2018-05-14T14:29:44.626Z,265
2018-05-14T14:31:06.755Z,240
2018-05-14T14:32:28.847Z,220
2018-05-14T14:33:50.690Z,200
2018-05-14T14:35:12.556Z,220
2018-05-14T14:36:35.328Z,215
2018-05-14T14:37:57.154Z,235
2018-05-14T14:39:19.246Z,230
2018-05-14T14:40:41.352Z,230
2018-05-14T14:42:03.548Z,240
2018-05-14T14:43:25.757Z,250
2018-05-14T14:44:47.840Z,280
2018-05-14T14:46:09.917Z,290
2018-05-14T14:47:32.030Z,300
2018-05-14T14:48:54.140Z,295
2018-05-14T14:50:16.253Z,305
2018-05-14T14:51:38.360Z,315
2018-05-14T14:53:00.197Z,320
2018-05-14T14:54:22.314Z,320
2018-05-14T14:55:43.955Z,305
2018-05-14T14:57:05.805Z,280
2018-05-14T14:58:27.880Z,240
2018-05-14T14:59:49.818Z,225
2018-05-14T15:01:11.949Z,205
2018-05-14T15:02:33.520Z,195
2018-05-14T15:03:55.606Z,190
2018-05-14T15:05:17.758Z,185
2018-05-14T15:06:39.617Z,190
2018-05-14T15:08:01.707Z,195
2018-05-14T15:09:23.830Z,205
2018-05-14T15:10:45.954Z,220
2018-05-14T15:12:08.084Z,220
2018-05-14T15:13:29.942Z,215
2018-05-14T15:14:51.782Z,210
2018-05-14T15:16:13.864Z,205
2018-05-14T15:17:35.949Z,195
2018-05-14T15:18:58.048Z,195
2018-05-14T15:20:20.442Z,195
2018-05-14T15:21:42.259Z,190
2018-05-14T15:23:04.365Z,195
2018-05-14T15:24:26.279Z,195
2018-05-14T15:25:48.101Z,200
2018-05-14T15:27:09.940Z,205
2018-05-14T15:28:31.255Z,210
2018-05-14T15:29:53.197Z,210
2018-05-14T15:31:14.767Z,200
2018-05-14T15:32:36.349Z,190
2018-05-14T15:33:58.183Z,190
2018-05-14T15:35:20.009Z,185
2018-05-14T15:36:42.097Z,185
2018-05-14T15:38:03.955Z,185
2018-05-14T15:39:26.052Z,185
2018-05-14T15:40:47.629Z,185
2018-05-14T15:42:09.736Z,180
2018-05-14T15:43:31.322Z,180
2018-05-14T15:44:53.157Z,185
2018-05-14T15:46:14.821Z,180
2018-05-14T15:47:36.653Z,180
2018-05-14T15:48:58.497Z,180
2018-05-14T15:50:20.663Z,180
2018-05-14T15:51:42.775Z,180
2018-05-14T15:53:04.356Z,180
2018-05-14T15:54:25.985Z,180
2018-05-14T15:55:48.098Z,185
2018-05-14T15:57:10.220Z,185
2018-05-14T15:58:32.363Z,185
2018-05-14T15:59:54.465Z,185
2018-05-14T16:01:16.292Z,185
2018-05-14T16:02:38.118Z,185
2018-05-14T16:03:59.927Z,185
2018-05-14T16:05:21.764Z,180
2018-05-14T16:06:43.596Z,175
2018-05-14T16:08:05.281Z,165
2018-05-14T16:09:26.812Z,170
2018-05-14T16:10:48.924Z,175
2018-05-14T16:12:11.023Z,175
2018-05-14T16:13:33.143Z,175
2018-05-14T16:14:55.409Z,175
2018-05-14T16:16:17.621Z,175
2018-05-14T16:17:39.472Z,175
2018-05-14T16:19:01.316Z,180
2018-05-14T16:20:23.520Z,180
2018-05-14T16:21:45.399Z,185
2018-05-14T16:23:06.952Z,180
2018-05-14T16:24:28.515Z,185
2018-05-14T16:25:50.367Z,185
2018-05-14T16:27:12.195Z,185
2018-05-14T16:28:34.299Z,190
2018-05-14T16:29:56.391Z,190
2018-05-14T16:31:18.254Z,185
2018-05-14T16:32:40.091Z,185
2018-05-14T16:34:02.284Z,185
2018-05-14T16:35:24.420Z,190
2018-05-14T16:36:46.519Z,195
2018-05-14T16:38:08.098Z,190
2018-05-14T16:39:30.225Z,180
2018-05-14T16:40:52.342Z,175
2018-05-14T16:42:14.624Z,170
2018-05-14T16:43:36.735Z,170
2018-05-14T16:44:58.836Z,155
2018-05-14T16:46:20.941Z,150
2018-05-14T16:47:43.048Z,145
2018-05-14T16:49:05.152Z,145
2018-05-14T16:50:27.093Z,135
2018-05-14T16:51:48.943Z,130
2018-05-14T16:53:10.815Z,135
2018-05-14T16:54:32.387Z,140
2018-05-14T16:55:54.510Z,140
2018-05-14T16:57:15.808Z,140
2018-05-14T16:58:37.666Z,150
2018-05-14T16:59:59.774Z,150
2018-05-14T17:01:21.877Z,150
2018-05-14T17:02:44.017Z,150
2018-05-14T17:04:05.993Z,150
2018-05-14T17:05:28.206Z,150
2018-05-14T17:06:50.343Z,150
2018-05-14T17:08:12.437Z,150
2018-05-14T17:09:34.549Z,150
2018-05-14T17:10:56.471Z,150
2018-05-14T17:12:18.021Z,150
2018-05-14T17:13:40.121Z,145
2018-05-14T17:15:02.234Z,145
2018-05-14T17:16:24.323Z,140
2018-05-14T17:17:46.334Z,140
2018-05-14T17:19:08.184Z,135
2018-05-14T17:20:30.088Z,135
2018-05-14T17:21:51.917Z,135
2018-05-14T17:23:14.037Z,135
2018-05-14T17:24:35.856Z,135
2018-05-14T17:25:57.671Z,130
2018-05-14T17:27:19.589Z,130
2018-05-14T17:28:41.710Z,130
2018-05-14T17:30:03.285Z,125
2018-05-14T17:31:25.388Z,125
2018-05-14T17:32:47.211Z,125
2018-05-14T17:34:09.303Z,120
2018-05-14T17:35:31.148Z,120
2018-05-14T17:36:52.982Z,120
2018-05-14T17:38:14.557Z,115
2018-05-14T17:39:36.401Z,115
2018-05-14T17:40:58.517Z,110
2018-05-14T17:42:20.644Z,110
2018-05-14T17:43:42.803Z,110
2018-05-14T17:45:04.637Z,110
2018-05-14T17:46:26.475Z,105
2018-05-14T17:47:48.594Z,105
2018-05-14T17:49:10.427Z,105
2018-05-14T17:50:32.270Z,100
2018-05-14T17:51:54.386Z,100
2018-05-14T17:53:16.271Z,100
2018-05-14T17:54:38.136Z,95
2018-05-14T17:55:59.982Z,95
2018-05-14T17:57:22.173Z,95
2018-05-14T17:58:44.028Z,90
2018-05-14T18:00:06.145Z,90
2018-05-14T18:01:28.024Z,90
2018-05-14T18:02:50.189Z,85
2018-05-14T18:04:12.043Z,85
2018-05-14T18:05:34.285Z,85
2018-05-14T18:06:56.413Z,80
2018-05-14T18:08:18.241Z,80
2018-05-14T18:09:40.346Z,80
2018-05-14T18:11:03.232Z,80
2018-05-14T18:12:25.360Z,80
2018-05-14T18:13:47.221Z,80
2018-05-14T18:15:09.363Z,75
2018-05-14T18:16:31.467Z,75
2018-05-14T18:17:54.438Z,75
2018-05-14T18:19:16.687Z,70
2018-05-14T18:20:38.811Z,70
2018-05-14T18:22:00.918Z,70
2018-05-14T18:23:22.789Z,65
2018-05-14T18:24:44.641Z,65
2018-05-14T18:26:06.775Z,65
2018-05-14T18:27:28.611Z,60
2018-05-14T18:28:50.246Z,60
2018-05-14T18:30:12.415Z,60
2018-05-14T18:31:34.832Z,55
2018-05-14T18:32:56.670Z,55
2018-05-14T18:34:18.799Z,55
2018-05-14T18:35:40.908Z,50
2018-05-14T18:37:02.488Z,50
2018-05-14T18:38:24.619Z,45
2018-05-14T18:39:46.738Z,45
2018-05-14T18:41:08.857Z,45
2018-05-14T18:42:30.992Z,40
2018-05-14T18:43:53.105Z,40
2018-05-14T18:45:14.716Z,40
2018-05-14T18:46:36.731Z,35
2018-05-14T18:47:58.602Z,35
2018-05-14T18:49:20.739Z,35
2018-05-14T18:50:42.867Z,30
2018-05-14T18:52:05.227Z,30
2018-05-14T18:53:27.333Z,30
2018-05-14T18:54:49.473Z,25
2018-05-14T18:56:11.685Z,25
2018-05-14T18:57:33.807Z,25
2018-05-14T18:58:55.674Z,20
2018-05-14T19:00:17.555Z,20
2018-05-14T19:01:39.436Z,20
2018-05-14T19:03:01.010Z,15
2018-05-14T19:04:23.173Z,15
2018-05-14T19:05:45.326Z,15